Главная страница
METAR-TAF:

METAR-TAF

Аэропорты :

Аннёйа, Норвегия

широта: 69-18N, долгота: 016-09E, высота над уровнем моря: 1 м

Текущие метеонаблюдения

Эта сводка был подготовлена 30 минут назад, в 19:20 UTC
Ветер 10 Узел от северо-северо-восточный
Температура 10°C
Влажность 82%
Давление 1015 hPa
Видимость 10 км и более

METAR: ENAN 131920Z AUTO 02010KT 9999 BKN012/// 10/07 Q1015

Время: 21:50 (19:50 UTC)

Прогноз

Эта сводка был подготовлена 2 часа и 50 минут назад, в 17:00 UTC
Прогноз действительный с 13-го 18 UTC до 14-го 18 UTC
Ветер 12 Узел от северо-северо-восточный
Видимость 10 км и более
небольшая облачность на высоте 1000 фута

TAF: ENAN 131700Z 1318/1418 03012KT 9999 FEW010

Метеонаблюдения и прогнозы для более 4000 аэропортов (сводки METAR и TAF).

Имеющиеся станции представлены на карте желтыми и красными точками.

Чтобы увидеть название станции, наведите на нее мышь.

Затем щелкните, чтобы увидеть метеонаблюдения и метеопрогнозы.

Управление картой: чтобы увеличить масштаб, щелкните зеленые кнопки с черным крестиком; чтобы уменьшить масштаб, щелкните зеленую кнопку с тире; для просмотра соседних карт щелкайте зеленые стрелки.


METAR-TAF: